Jump to content


UNITED AIRLINES FLIGHT UA2221 FLOWN ON 09-17-2017 BY CAPTAIN JIM BOERMAN

Pilot StatsCaptain Jim Boerman (LDP136) • 4,616.9 total hours • 1,400 total flights [View Logbook]
FLIGHT DETAILS
StatusReceived and approved on 2017-09-17 at 14:09:00
Origin AirportWinnipeg Intl (CYWG) • Winnipeg, Manitoba, Canada (783 feet MSL)
Filed Flight PlanCYWG HML J107 DDY J202 OCS J107 MLF J9 GEGEE J107 BERYL J9 NORRA J107 BLD J60 HEC J64 RESOR J107 CIVET J128 JUGLI KLAX
Destination AirportLos Angeles Intl (KLAX) • Los Angeles, California, United States (126 feet MSL)
Alternate AirportOntario Intl (KONT) • Ontario, California, United States (944 feet MSL)
AirlineUnited Airlines
AircraftBoeing 737-700 | Winglets (73W / B737-700)
FS Aircraft UsedBoeing 737-724NGX United Airlines (Merger) Winglets
Cruising AltitudeFL360
Distance Flown1,337 nautical miles
Passengers Onboard50 passengers (36.76% full)
DEPARTURE DETAILS
Time Out08:18:35
Taxi Data133,435 lbs total with 23,960 lbs of fuel onboard
Takeoff Data08:30:56 (12 minutes after leaving gate/ramp) • 132,953 lbs total • 9° pitch at 152 knots
Departure METARCYWG 171300Z 26011G16KT 15SM FEW012 BKN026 06/05 A2994 RMK SC2SC5 SLP147
ARRIVAL DETAILS
Landing Data11:11:51 • 115,179 lbs total • 5° pitch doing 113 knots at a rate of -121.49 feet/minute with 5,316 lbs of fuel onboard
Time In11:21:27 (10 minutes after landing)
Ramp Weight114,791 lbs total
Total Fuel Used18,644 lbs
Total Block Time04:02:51 (4 hours) while 22 minutes were spent on the ground
Arrival METARKLAX 171753Z 28008KT 10SM SCT023 SCT028 BKN038 22/16 A2998 RMK AO2 SLP150 T02170161 10217 20189 51010
MISCELLANEOUS DETAILS
LiveDISPATCH Version4.8.3.1
FS Version
FSUIPC Version5.12
OS VersionWindows 7 32-bit
Screen Resolution1920 x 1080
Pilot's CommentsNo Comments Reported
FLIGHT MAP